FNG8 EFHK-EFHK
Flight info
| Callsign | FNG8 |
|---|---|
| Flight time | 1h 6m |
| Altitude | 2000 |
| Route | HAGIP 595512N0245712E 595539N0251942E 595422N0255035E 600856N0263054E 601012N0264110E 601626N0264531E 601750N0272031E 602656N0272643E 602748N0265702E VEPIN/N200F100 IFR |
| Aircraft | D228/L-SDFGHILORVY/S |
Departure
| Time | 2026-04-22 09:22 |
|---|---|
| Airport | Helsinki Vantaa Airport (EFHK) |
Arrival
| Time | 2026-04-22 10:28 |
|---|---|
| Airport | Helsinki Vantaa Airport (EFHK) |
| Time | Latitude | Longitude | Altitude | Speed | Heading |
|---|---|---|---|---|---|
| 2026-04-22 09:11 | 60.31323 | 24.98943 | 151 ft | 0 kts | 155° |
| 2026-04-22 09:16 | 60.31322 | 24.98944 | 151 ft | 2 kts | 155° |
| 2026-04-22 09:16 | 60.31283 | 24.98933 | 150 ft | 10 kts | 234° |
| 2026-04-22 09:16 | 60.31232 | 24.98821 | 149 ft | 10 kts | 174° |
| 2026-04-22 09:17 | 60.31153 | 24.98900 | 149 ft | 13 kts | 165° |
| 2026-04-22 09:17 | 60.31098 | 24.98806 | 148 ft | 14 kts | 244° |
| 2026-04-22 09:17 | 60.31051 | 24.98609 | 150 ft | 17 kts | 243° |
| 2026-04-22 09:17 | 60.30991 | 24.98374 | 153 ft | 20 kts | 242° |
| 2026-04-22 09:18 | 60.30991 | 24.98197 | 158 ft | 10 kts | 335° |
| 2026-04-22 09:18 | 60.31071 | 24.98126 | 158 ft | 15 kts | 334° |
| 2026-04-22 09:18 | 60.31176 | 24.98013 | 158 ft | 19 kts | 332° |
| 2026-04-22 09:18 | 60.31303 | 24.97882 | 158 ft | 18 kts | 333° |
| 2026-04-22 09:19 | 60.31394 | 24.97789 | 158 ft | 17 kts | 332° |
| 2026-04-22 09:19 | 60.31511 | 24.97668 | 158 ft | 19 kts | 334° |
| 2026-04-22 09:19 | 60.31626 | 24.97552 | 158 ft | 18 kts | 332° |
| 2026-04-22 09:19 | 60.31738 | 24.97435 | 158 ft | 19 kts | 332° |
| 2026-04-22 09:20 | 60.31867 | 24.97300 | 158 ft | 22 kts | 333° |
| 2026-04-22 09:20 | 60.31998 | 24.97168 | 159 ft | 19 kts | 333° |
| 2026-04-22 09:20 | 60.32108 | 24.97052 | 159 ft | 19 kts | 332° |
| 2026-04-22 09:20 | 60.32236 | 24.96919 | 159 ft | 22 kts | 332° |
| 2026-04-22 09:21 | 60.32374 | 24.96773 | 164 ft | 22 kts | 333° |
| 2026-04-22 09:21 | 60.32479 | 24.96663 | 170 ft | 9 kts | 303° |
| 2026-04-22 09:21 | 60.32433 | 24.96502 | 173 ft | 35 kts | 229° |
| 2026-04-22 09:21 | 60.32100 | 24.95770 | 238 ft | 97 kts | 234° |
| 2026-04-22 09:22 | 60.31590 | 24.94663 | 613 ft | 114 kts | 234° |
| 2026-04-22 09:22 | 60.31029 | 24.93439 | 1122 ft | 122 kts | 234° |
| 2026-04-22 09:22 | 60.30437 | 24.92199 | 1702 ft | 129 kts | 234° |
| 2026-04-22 09:22 | 60.29528 | 24.91305 | 1985 ft | 165 kts | 201° |
| 2026-04-22 09:23 | 60.28283 | 24.90935 | 2016 ft | 195 kts | 191° |
| 2026-04-22 09:23 | 60.26874 | 24.90769 | 2015 ft | 206 kts | 188° |
| 2026-04-22 09:23 | 60.25455 | 24.90625 | 2001 ft | 207 kts | 189° |
| 2026-04-22 09:23 | 60.24010 | 24.90429 | 1994 ft | 209 kts | 190° |
| 2026-04-22 09:24 | 60.22560 | 24.90235 | 2011 ft | 208 kts | 190° |
| 2026-04-22 09:24 | 60.21111 | 24.90036 | 2006 ft | 208 kts | 189° |
| 2026-04-22 09:24 | 60.19682 | 24.90221 | 2000 ft | 205 kts | 179° |
| 2026-04-22 09:24 | 60.18265 | 24.90485 | 1995 ft | 204 kts | 180° |
| 2026-04-22 09:25 | 60.16850 | 24.90743 | 1981 ft | 205 kts | 181° |
| 2026-04-22 09:25 | 60.15414 | 24.91009 | 1997 ft | 208 kts | 180° |
| 2026-04-22 09:25 | 60.13969 | 24.91279 | 1990 ft | 208 kts | 180° |
| 2026-04-22 09:25 | 60.12528 | 24.91544 | 1988 ft | 207 kts | 180° |
| 2026-04-22 09:26 | 60.11114 | 24.91805 | 1988 ft | 206 kts | 180° |
| 2026-04-22 09:26 | 60.09685 | 24.92069 | 1987 ft | 206 kts | 180° |
| 2026-04-22 09:26 | 60.08251 | 24.92336 | 1985 ft | 206 kts | 180° |
| 2026-04-22 09:26 | 60.06821 | 24.92600 | 1975 ft | 206 kts | 180° |
| 2026-04-22 09:27 | 60.05401 | 24.92869 | 1983 ft | 205 kts | 180° |
| 2026-04-22 09:27 | 60.03977 | 24.93132 | 1975 ft | 205 kts | 180° |
| 2026-04-22 09:27 | 60.02557 | 24.93393 | 1979 ft | 205 kts | 181° |
| 2026-04-22 09:27 | 60.01141 | 24.93654 | 1981 ft | 204 kts | 181° |
| 2026-04-22 09:28 | 59.99724 | 24.93914 | 1972 ft | 204 kts | 181° |
| 2026-04-22 09:28 | 59.98324 | 24.94172 | 1985 ft | 205 kts | 181° |
| 2026-04-22 09:28 | 59.96900 | 24.94434 | 1977 ft | 205 kts | 181° |
| 2026-04-22 09:28 | 59.95481 | 24.94729 | 1981 ft | 206 kts | 175° |
| 2026-04-22 09:29 | 59.94133 | 24.95785 | 1977 ft | 212 kts | 151° |
| 2026-04-22 09:29 | 59.93032 | 24.97747 | 1975 ft | 213 kts | 127° |
| 2026-04-22 09:29 | 59.92351 | 25.00333 | 1981 ft | 210 kts | 104° |
| 2026-04-22 09:29 | 59.92160 | 25.03175 | 1979 ft | 204 kts | 82° |
| 2026-04-22 09:30 | 59.92227 | 25.05993 | 1987 ft | 204 kts | 82° |
| 2026-04-22 09:30 | 59.92284 | 25.08819 | 1984 ft | 203 kts | 81° |
| 2026-04-22 09:30 | 59.92340 | 25.11633 | 1980 ft | 203 kts | 82° |
| 2026-04-22 09:30 | 59.92396 | 25.14448 | 1987 ft | 203 kts | 82° |
| 2026-04-22 09:31 | 59.92451 | 25.17229 | 1991 ft | 203 kts | 81° |
| 2026-04-22 09:31 | 59.92507 | 25.20053 | 1990 ft | 204 kts | 82° |
| 2026-04-22 09:31 | 59.92562 | 25.22884 | 1995 ft | 204 kts | 82° |
| 2026-04-22 09:31 | 59.92617 | 25.25718 | 1994 ft | 204 kts | 82° |
| 2026-04-22 09:32 | 59.92670 | 25.28553 | 1995 ft | 204 kts | 82° |
| 2026-04-22 09:32 | 59.92723 | 25.31383 | 1996 ft | 204 kts | 82° |
| 2026-04-22 09:32 | 59.92707 | 25.34212 | 1992 ft | 205 kts | 90° |
| 2026-04-22 09:32 | 59.92582 | 25.37067 | 1990 ft | 207 kts | 90° |
| 2026-04-22 09:33 | 59.92467 | 25.39894 | 1984 ft | 207 kts | 89° |
| 2026-04-22 09:33 | 59.92353 | 25.42759 | 1983 ft | 207 kts | 89° |
| 2026-04-22 09:33 | 59.92238 | 25.45612 | 1982 ft | 206 kts | 89° |
| 2026-04-22 09:33 | 59.92123 | 25.48461 | 1982 ft | 206 kts | 90° |
| 2026-04-22 09:34 | 59.92006 | 25.51302 | 1986 ft | 206 kts | 90° |
| 2026-04-22 09:34 | 59.91889 | 25.54157 | 1977 ft | 207 kts | 90° |
| 2026-04-22 09:34 | 59.91771 | 25.57019 | 1978 ft | 208 kts | 90° |
| 2026-04-22 09:35 | 59.91572 | 25.61792 | 1978 ft | 207 kts | 90° |
| 2026-04-22 09:35 | 59.91452 | 25.64653 | 1975 ft | 207 kts | 90° |
| 2026-04-22 09:35 | 59.91291 | 25.68466 | 1973 ft | 206 kts | 90° |
| 2026-04-22 09:35 | 59.91212 | 25.70346 | 1973 ft | 206 kts | 90° |
| 2026-04-22 09:36 | 59.91090 | 25.73190 | 1972 ft | 206 kts | 90° |
| 2026-04-22 09:36 | 59.90969 | 25.76037 | 1974 ft | 207 kts | 90° |
| 2026-04-22 09:36 | 59.90846 | 25.78889 | 1975 ft | 207 kts | 90° |
| 2026-04-22 09:36 | 59.90728 | 25.81748 | 1973 ft | 206 kts | 87° |
| 2026-04-22 09:37 | 59.90929 | 25.84503 | 1957 ft | 198 kts | 65° |
| 2026-04-22 09:37 | 59.91548 | 25.86878 | 1952 ft | 189 kts | 45° |
| 2026-04-22 09:37 | 59.92323 | 25.88964 | 1961 ft | 190 kts | 46° |
| 2026-04-22 09:37 | 59.93103 | 25.91105 | 1955 ft | 190 kts | 45° |
| 2026-04-22 09:38 | 59.93879 | 25.93234 | 1957 ft | 190 kts | 45° |
| 2026-04-22 09:38 | 59.94656 | 25.95363 | 1957 ft | 189 kts | 45° |
| 2026-04-22 09:38 | 59.95434 | 25.97496 | 1981 ft | 190 kts | 45° |
| 2026-04-22 09:38 | 59.96222 | 25.99655 | 1956 ft | 194 kts | 45° |
| 2026-04-22 09:39 | 59.97012 | 26.01827 | 1957 ft | 193 kts | 46° |
| 2026-04-22 09:39 | 59.97800 | 26.03997 | 1957 ft | 193 kts | 46° |
| 2026-04-22 09:39 | 59.98586 | 26.06163 | 1958 ft | 192 kts | 45° |
| 2026-04-22 09:39 | 59.99374 | 26.08332 | 1957 ft | 193 kts | 45° |
| 2026-04-22 09:40 | 60.00154 | 26.10482 | 1958 ft | 194 kts | 45° |
| 2026-04-22 09:40 | 60.00946 | 26.12669 | 1958 ft | 194 kts | 45° |
| 2026-04-22 09:40 | 60.01734 | 26.14848 | 1959 ft | 192 kts | 45° |
| 2026-04-22 09:40 | 60.02516 | 26.17010 | 1958 ft | 192 kts | 45° |
| 2026-04-22 09:41 | 60.03300 | 26.19179 | 1949 ft | 192 kts | 45° |
| 2026-04-22 09:41 | 60.04080 | 26.21341 | 1942 ft | 192 kts | 45° |
| 2026-04-22 09:41 | 60.04864 | 26.23513 | 1942 ft | 193 kts | 45° |
| 2026-04-22 09:41 | 60.05644 | 26.25681 | 1943 ft | 191 kts | 45° |
| 2026-04-22 09:42 | 60.06423 | 26.27844 | 1939 ft | 192 kts | 45° |
| 2026-04-22 09:42 | 60.07202 | 26.30009 | 1938 ft | 192 kts | 45° |
| 2026-04-22 09:42 | 60.07981 | 26.32178 | 1940 ft | 192 kts | 46° |
| 2026-04-22 09:42 | 60.08749 | 26.34318 | 1939 ft | 192 kts | 46° |
| 2026-04-22 09:43 | 60.09526 | 26.36487 | 1942 ft | 191 kts | 46° |
| 2026-04-22 09:43 | 60.10304 | 26.38656 | 1941 ft | 192 kts | 46° |
| 2026-04-22 09:43 | 60.11080 | 26.40823 | 1941 ft | 191 kts | 45° |
| 2026-04-22 09:43 | 60.11857 | 26.42996 | 1933 ft | 192 kts | 46° |
| 2026-04-22 09:44 | 60.12634 | 26.45172 | 1932 ft | 192 kts | 45° |
| 2026-04-22 09:44 | 60.13411 | 26.47349 | 1933 ft | 192 kts | 46° |
| 2026-04-22 09:44 | 60.14190 | 26.49534 | 1928 ft | 192 kts | 45° |
| 2026-04-22 09:44 | 60.14893 | 26.51833 | 1919 ft | 199 kts | 59° |
| 2026-04-22 09:45 | 60.15270 | 26.54549 | 1939 ft | 203 kts | 70° |
| 2026-04-22 09:45 | 60.15605 | 26.57291 | 1928 ft | 202 kts | 70° |
| 2026-04-22 09:45 | 60.15943 | 26.60019 | 1928 ft | 201 kts | 69° |
| 2026-04-22 09:45 | 60.16281 | 26.62751 | 1928 ft | 202 kts | 69° |
| 2026-04-22 09:46 | 60.16656 | 26.65453 | 1926 ft | 198 kts | 60° |
| 2026-04-22 09:46 | 60.17370 | 26.67720 | 1920 ft | 189 kts | 41° |
| 2026-04-22 09:46 | 60.18352 | 26.69368 | 1917 ft | 180 kts | 22° |
| 2026-04-22 09:46 | 60.19476 | 26.70335 | 1906 ft | 174 kts | 9° |
| 2026-04-22 09:47 | 60.20623 | 26.71124 | 1910 ft | 175 kts | 11° |
| 2026-04-22 09:47 | 60.21771 | 26.71931 | 1910 ft | 175 kts | 11° |
| 2026-04-22 09:47 | 60.22916 | 26.72733 | 1911 ft | 174 kts | 11° |
| 2026-04-22 09:47 | 60.24060 | 26.73531 | 1910 ft | 174 kts | 11° |
| 2026-04-22 09:48 | 60.25208 | 26.74351 | 1910 ft | 176 kts | 14° |
| 2026-04-22 09:48 | 60.26263 | 26.75711 | 1905 ft | 185 kts | 32° |
| 2026-04-22 09:48 | 60.27097 | 26.77771 | 1903 ft | 195 kts | 52° |
| 2026-04-22 09:48 | 60.27572 | 26.80384 | 1903 ft | 204 kts | 73° |
| 2026-04-22 09:49 | 60.27701 | 26.83247 | 1904 ft | 205 kts | 80° |
| 2026-04-22 09:49 | 60.27809 | 26.85952 | 1905 ft | 204 kts | 79° |
| 2026-04-22 09:49 | 60.27923 | 26.88674 | 1905 ft | 204 kts | 79° |
| 2026-04-22 09:49 | 60.28041 | 26.91524 | 1904 ft | 204 kts | 80° |
| 2026-04-22 09:50 | 60.28159 | 26.94375 | 1908 ft | 205 kts | 80° |
| 2026-04-22 09:50 | 60.28276 | 26.97253 | 1900 ft | 206 kts | 80° |
| 2026-04-22 09:50 | 60.28392 | 27.00140 | 1901 ft | 207 kts | 80° |
| 2026-04-22 09:50 | 60.28509 | 27.03026 | 1898 ft | 207 kts | 80° |
| 2026-04-22 09:51 | 60.28624 | 27.05914 | 1896 ft | 207 kts | 80° |
| 2026-04-22 09:51 | 60.28739 | 27.08804 | 1896 ft | 207 kts | 80° |
| 2026-04-22 09:51 | 60.28853 | 27.11684 | 1899 ft | 206 kts | 80° |
| 2026-04-22 09:51 | 60.28967 | 27.14570 | 1905 ft | 207 kts | 80° |
| 2026-04-22 09:52 | 60.29081 | 27.17460 | 1899 ft | 207 kts | 80° |
| 2026-04-22 09:52 | 60.29192 | 27.20352 | 1898 ft | 207 kts | 81° |
| 2026-04-22 09:52 | 60.29304 | 27.23250 | 1900 ft | 208 kts | 80° |
| 2026-04-22 09:52 | 60.29417 | 27.26156 | 1901 ft | 208 kts | 80° |
| 2026-04-22 09:53 | 60.29531 | 27.29056 | 1897 ft | 206 kts | 78° |
| 2026-04-22 09:53 | 60.29929 | 27.31749 | 1888 ft | 198 kts | 56° |
| 2026-04-22 09:53 | 60.30708 | 27.33943 | 1887 ft | 188 kts | 38° |
| 2026-04-22 09:53 | 60.31733 | 27.35463 | 1884 ft | 180 kts | 20° |
| 2026-04-22 09:54 | 60.32881 | 27.36333 | 1883 ft | 175 kts | 11° |
| 2026-04-22 09:54 | 60.34045 | 27.37121 | 1883 ft | 176 kts | 12° |
| 2026-04-22 09:54 | 60.35208 | 27.37914 | 1883 ft | 176 kts | 12° |
| 2026-04-22 09:54 | 60.36357 | 27.38697 | 1883 ft | 176 kts | 12° |
| 2026-04-22 09:55 | 60.37522 | 27.39495 | 1883 ft | 176 kts | 12° |
| 2026-04-22 09:55 | 60.38684 | 27.40288 | 1885 ft | 176 kts | 11° |
| 2026-04-22 09:55 | 60.39845 | 27.41078 | 1885 ft | 176 kts | 12° |
| 2026-04-22 09:55 | 60.41028 | 27.41619 | 1886 ft | 172 kts | 357° |
| 2026-04-22 09:56 | 60.42204 | 27.41412 | 1878 ft | 168 kts | 342° |
| 2026-04-22 09:56 | 60.43270 | 27.40544 | 1877 ft | 164 kts | 327° |
| 2026-04-22 09:56 | 60.44150 | 27.39124 | 1871 ft | 162 kts | 312° |
| 2026-04-22 09:56 | 60.44796 | 27.37260 | 1873 ft | 162 kts | 298° |
| 2026-04-22 09:57 | 60.45156 | 27.35090 | 1881 ft | 164 kts | 284° |
| 2026-04-22 09:57 | 60.45245 | 27.32778 | 1871 ft | 165 kts | 277° |
| 2026-04-22 09:57 | 60.45316 | 27.30465 | 1871 ft | 164 kts | 277° |
| 2026-04-22 09:57 | 60.45387 | 27.28175 | 1870 ft | 165 kts | 277° |
| 2026-04-22 09:58 | 60.45458 | 27.25819 | 1873 ft | 165 kts | 277° |
| 2026-04-22 09:58 | 60.45526 | 27.23523 | 1874 ft | 166 kts | 277° |
| 2026-04-22 09:58 | 60.45594 | 27.21194 | 1878 ft | 166 kts | 278° |
| 2026-04-22 09:58 | 60.45662 | 27.18869 | 1880 ft | 165 kts | 277° |
| 2026-04-22 09:59 | 60.45731 | 27.16544 | 1886 ft | 166 kts | 277° |
| 2026-04-22 09:59 | 60.45797 | 27.14210 | 1887 ft | 166 kts | 277° |
| 2026-04-22 09:59 | 60.45863 | 27.11888 | 1886 ft | 165 kts | 277° |
| 2026-04-22 09:59 | 60.45929 | 27.09580 | 1886 ft | 164 kts | 277° |
| 2026-04-22 10:00 | 60.45994 | 27.07270 | 1885 ft | 164 kts | 277° |
| 2026-04-22 10:00 | 60.46060 | 27.04951 | 1885 ft | 165 kts | 277° |
| 2026-04-22 10:00 | 60.46125 | 27.02632 | 1887 ft | 165 kts | 277° |
| 2026-04-22 10:00 | 60.46189 | 27.00302 | 1887 ft | 166 kts | 277° |
| 2026-04-22 10:01 | 60.46253 | 26.98001 | 1888 ft | 165 kts | 276° |
| 2026-04-22 10:01 | 60.46352 | 26.95713 | 1889 ft | 161 kts | 285° |
| 2026-04-22 10:01 | 60.46740 | 26.93574 | 1924 ft | 158 kts | 299° |
| 2026-04-22 10:01 | 60.47248 | 26.91780 | 2541 ft | 139 kts | 301° |
| 2026-04-22 10:02 | 60.47708 | 26.90083 | 3110 ft | 137 kts | 302° |
| 2026-04-22 10:02 | 60.48171 | 26.88391 | 3585 ft | 137 kts | 304° |
| 2026-04-22 10:02 | 60.48635 | 26.86702 | 4039 ft | 137 kts | 304° |
| 2026-04-22 10:02 | 60.49100 | 26.85008 | 4496 ft | 138 kts | 304° |
| 2026-04-22 10:03 | 60.49567 | 26.83307 | 4954 ft | 138 kts | 304° |
| 2026-04-22 10:03 | 60.50032 | 26.81610 | 5427 ft | 138 kts | 306° |
| 2026-04-22 10:03 | 60.50501 | 26.79905 | 5866 ft | 139 kts | 306° |
| 2026-04-22 10:03 | 60.50968 | 26.78196 | 6289 ft | 138 kts | 306° |
| 2026-04-22 10:04 | 60.51436 | 26.76489 | 6673 ft | 139 kts | 306° |
| 2026-04-22 10:04 | 60.51908 | 26.74766 | 7055 ft | 140 kts | 306° |
| 2026-04-22 10:04 | 60.52381 | 26.73030 | 7448 ft | 141 kts | 305° |
| 2026-04-22 10:04 | 60.52859 | 26.71282 | 7816 ft | 142 kts | 305° |
| 2026-04-22 10:05 | 60.53340 | 26.69518 | 8195 ft | 143 kts | 304° |
| 2026-04-22 10:05 | 60.53824 | 26.67745 | 8566 ft | 144 kts | 304° |
| 2026-04-22 10:05 | 60.54304 | 26.65981 | 8922 ft | 145 kts | 304° |
| 2026-04-22 10:05 | 60.54798 | 26.64162 | 9285 ft | 145 kts | 304° |
| 2026-04-22 10:06 | 60.55283 | 26.62385 | 9642 ft | 146 kts | 304° |
| 2026-04-22 10:06 | 60.55787 | 26.60537 | 9792 ft | 156 kts | 304° |
| 2026-04-22 10:06 | 60.56326 | 26.58558 | 9800 ft | 163 kts | 303° |
| 2026-04-22 10:06 | 60.56880 | 26.56514 | 9809 ft | 167 kts | 303° |
| 2026-04-22 10:07 | 60.57445 | 26.54428 | 9805 ft | 168 kts | 303° |
| 2026-04-22 10:07 | 60.58011 | 26.52334 | 9802 ft | 169 kts | 303° |
| 2026-04-22 10:07 | 60.58579 | 26.50234 | 9802 ft | 169 kts | 303° |
| 2026-04-22 10:07 | 60.59146 | 26.48134 | 9804 ft | 170 kts | 303° |
| 2026-04-22 10:08 | 60.59714 | 26.46031 | 9803 ft | 170 kts | 303° |
| 2026-04-22 10:08 | 60.60283 | 26.43926 | 9798 ft | 170 kts | 303° |
| 2026-04-22 10:08 | 60.60850 | 26.41821 | 9802 ft | 170 kts | 303° |
| 2026-04-22 10:08 | 60.61417 | 26.39714 | 9809 ft | 170 kts | 303° |
| 2026-04-22 10:09 | 60.61986 | 26.37600 | 9805 ft | 170 kts | 303° |
| 2026-04-22 10:09 | 60.62445 | 26.35367 | 9801 ft | 174 kts | 293° |
| 2026-04-22 10:09 | 60.62659 | 26.32917 | 9804 ft | 179 kts | 282° |
| 2026-04-22 10:09 | 60.62601 | 26.30345 | 9804 ft | 185 kts | 271° |
| 2026-04-22 10:10 | 60.62254 | 26.27771 | 9800 ft | 191 kts | 262° |
| 2026-04-22 10:10 | 60.61834 | 26.25209 | 9796 ft | 190 kts | 263° |
| 2026-04-22 10:10 | 60.61425 | 26.22646 | 9799 ft | 190 kts | 263° |
| 2026-04-22 10:10 | 60.61012 | 26.20082 | 9796 ft | 190 kts | 263° |
| 2026-04-22 10:11 | 60.60599 | 26.17517 | 9806 ft | 191 kts | 263° |
| 2026-04-22 10:11 | 60.60183 | 26.14946 | 9804 ft | 191 kts | 262° |
| 2026-04-22 10:11 | 60.59767 | 26.12376 | 9805 ft | 191 kts | 262° |
| 2026-04-22 10:11 | 60.59349 | 26.09802 | 9815 ft | 191 kts | 262° |
| 2026-04-22 10:12 | 60.58936 | 26.07267 | 9810 ft | 191 kts | 262° |
| 2026-04-22 10:12 | 60.58519 | 26.04696 | 9813 ft | 191 kts | 262° |
| 2026-04-22 10:12 | 60.58101 | 26.02129 | 9799 ft | 191 kts | 261° |
| 2026-04-22 10:12 | 60.57664 | 25.99572 | 9798 ft | 194 kts | 256° |
| 2026-04-22 10:13 | 60.56940 | 25.97187 | 9805 ft | 203 kts | 241° |
| 2026-04-22 10:13 | 60.55979 | 25.95042 | 9804 ft | 205 kts | 237° |
| 2026-04-22 10:13 | 60.55016 | 25.92892 | 9806 ft | 206 kts | 237° |
| 2026-04-22 10:13 | 60.54055 | 25.90734 | 9806 ft | 206 kts | 238° |
| 2026-04-22 10:14 | 60.53091 | 25.88576 | 9807 ft | 206 kts | 237° |
| 2026-04-22 10:14 | 60.52124 | 25.86428 | 9745 ft | 205 kts | 238° |
| 2026-04-22 10:14 | 60.51174 | 25.84304 | 9471 ft | 202 kts | 238° |
| 2026-04-22 10:14 | 60.50228 | 25.82188 | 9212 ft | 203 kts | 238° |
| 2026-04-22 10:15 | 60.49276 | 25.80074 | 8966 ft | 203 kts | 238° |
| 2026-04-22 10:15 | 60.48326 | 25.77957 | 8699 ft | 203 kts | 238° |
| 2026-04-22 10:15 | 60.47372 | 25.75839 | 8442 ft | 203 kts | 238° |
| 2026-04-22 10:15 | 60.46420 | 25.73728 | 8187 ft | 202 kts | 239° |
| 2026-04-22 10:16 | 60.45473 | 25.71627 | 7926 ft | 202 kts | 239° |
| 2026-04-22 10:16 | 60.44525 | 25.69532 | 7670 ft | 201 kts | 239° |
| 2026-04-22 10:16 | 60.43575 | 25.67438 | 7424 ft | 202 kts | 239° |
| 2026-04-22 10:16 | 60.42625 | 25.65343 | 7176 ft | 202 kts | 239° |
| 2026-04-22 10:17 | 60.41673 | 25.63248 | 6930 ft | 202 kts | 239° |
| 2026-04-22 10:17 | 60.40722 | 25.61157 | 6690 ft | 202 kts | 239° |
| 2026-04-22 10:17 | 60.39773 | 25.59072 | 6444 ft | 201 kts | 239° |
| 2026-04-22 10:17 | 60.38827 | 25.56995 | 6209 ft | 201 kts | 240° |
| 2026-04-22 10:18 | 60.37884 | 25.54923 | 5990 ft | 199 kts | 240° |
| 2026-04-22 10:18 | 60.36950 | 25.52879 | 5854 ft | 197 kts | 240° |
| 2026-04-22 10:18 | 60.36027 | 25.50843 | 5692 ft | 197 kts | 238° |
| 2026-04-22 10:18 | 60.35098 | 25.48810 | 5552 ft | 197 kts | 238° |
| 2026-04-22 10:19 | 60.34206 | 25.46755 | 5428 ft | 188 kts | 249° |
| 2026-04-22 10:19 | 60.33961 | 25.44430 | 5279 ft | 160 kts | 290° |
| 2026-04-22 10:19 | 60.34333 | 25.42403 | 5157 ft | 150 kts | 303° |
| 2026-04-22 10:19 | 60.35073 | 25.41045 | 4995 ft | 146 kts | 332° |
| 2026-04-22 10:20 | 60.35977 | 25.40070 | 4801 ft | 148 kts | 330° |
| 2026-04-22 10:20 | 60.36852 | 25.39032 | 4605 ft | 147 kts | 328° |
| 2026-04-22 10:20 | 60.37729 | 25.37949 | 4400 ft | 148 kts | 328° |
| 2026-04-22 10:20 | 60.38602 | 25.36854 | 4194 ft | 147 kts | 328° |
| 2026-04-22 10:21 | 60.39472 | 25.35763 | 3985 ft | 147 kts | 327° |
| 2026-04-22 10:21 | 60.40334 | 25.34680 | 3885 ft | 145 kts | 327° |
| 2026-04-22 10:21 | 60.41197 | 25.33593 | 3780 ft | 147 kts | 327° |
| 2026-04-22 10:21 | 60.41776 | 25.32863 | 3704 ft | 148 kts | 327° |
| 2026-04-22 10:22 | 60.42602 | 25.31708 | 3592 ft | 132 kts | 319° |
| 2026-04-22 10:22 | 60.43192 | 25.30403 | 3489 ft | 123 kts | 310° |
| 2026-04-22 10:22 | 60.43640 | 25.28881 | 3370 ft | 128 kts | 300° |
| 2026-04-22 10:22 | 60.43923 | 25.27146 | 3260 ft | 132 kts | 289° |
| 2026-04-22 10:23 | 60.44016 | 25.25274 | 3154 ft | 136 kts | 277° |
| 2026-04-22 10:23 | 60.43893 | 25.23349 | 3047 ft | 140 kts | 265° |
| 2026-04-22 10:23 | 60.43531 | 25.21490 | 2943 ft | 143 kts | 254° |
| 2026-04-22 10:23 | 60.42914 | 25.19814 | 2816 ft | 150 kts | 242° |
| 2026-04-22 10:24 | 60.42235 | 25.18194 | 2716 ft | 152 kts | 239° |
| 2026-04-22 10:24 | 60.41539 | 25.16599 | 2617 ft | 151 kts | 239° |
| 2026-04-22 10:24 | 60.40819 | 25.15018 | 2483 ft | 155 kts | 237° |
| 2026-04-22 10:24 | 60.40095 | 25.13408 | 2282 ft | 155 kts | 237° |
| 2026-04-22 10:25 | 60.39372 | 25.11812 | 2065 ft | 152 kts | 236° |
| 2026-04-22 10:25 | 60.38678 | 25.10274 | 1861 ft | 148 kts | 236° |
| 2026-04-22 10:25 | 60.37983 | 25.08743 | 1658 ft | 145 kts | 235° |
| 2026-04-22 10:25 | 60.37315 | 25.07265 | 1459 ft | 144 kts | 235° |
| 2026-04-22 10:26 | 60.36693 | 25.05887 | 1261 ft | 121 kts | 237° |
| 2026-04-22 10:26 | 60.36146 | 25.04687 | 1071 ft | 112 kts | 237° |
| 2026-04-22 10:26 | 60.35634 | 25.03555 | 932 ft | 107 kts | 236° |
| 2026-04-22 10:26 | 60.35136 | 25.02454 | 782 ft | 106 kts | 236° |
| 2026-04-22 10:27 | 60.34647 | 25.01371 | 642 ft | 104 kts | 235° |
| 2026-04-22 10:27 | 60.34172 | 25.00309 | 499 ft | 100 kts | 232° |
| 2026-04-22 10:27 | 60.33703 | 24.99303 | 377 ft | 96 kts | 233° |
| 2026-04-22 10:27 | 60.33246 | 24.98300 | 256 ft | 97 kts | 236° |
| 2026-04-22 10:28 | 60.32818 | 24.97369 | 164 ft | 78 kts | 232° |
| 2026-04-22 10:28 | 60.32585 | 24.96838 | 168 ft | 20 kts | 226° |
| 2026-04-22 10:28 | 60.32558 | 24.96783 | 169 ft | 5 kts | 225° |
| 2026-04-22 10:28 | 60.32470 | 24.96676 | 170 ft | 17 kts | 162° |
| 2026-04-22 10:29 | 60.32317 | 24.96834 | 161 ft | 32 kts | 152° |
| 2026-04-22 10:29 | 60.32133 | 24.97027 | 159 ft | 18 kts | 152° |
| 2026-04-22 10:29 | 60.31991 | 24.97172 | 159 ft | 27 kts | 153° |
| 2026-04-22 10:29 | 60.31819 | 24.97350 | 158 ft | 28 kts | 152° |
| 2026-04-22 10:30 | 60.31631 | 24.97546 | 158 ft | 33 kts | 153° |
| 2026-04-22 10:30 | 60.31421 | 24.97764 | 158 ft | 34 kts | 152° |
| 2026-04-22 10:30 | 60.31197 | 24.97995 | 158 ft | 38 kts | 153° |
| 2026-04-22 10:30 | 60.31008 | 24.98186 | 158 ft | 18 kts | 155° |
| 2026-04-22 10:31 | 60.30977 | 24.98329 | 155 ft | 15 kts | 65° |
| 2026-04-22 10:31 | 60.31040 | 24.98566 | 150 ft | 23 kts | 64° |
| 2026-04-22 10:31 | 60.31105 | 24.98825 | 148 ft | 13 kts | 64° |
| 2026-04-22 10:31 | 60.31169 | 24.98886 | 149 ft | 13 kts | 334° |
| 2026-04-22 10:32 | 60.31250 | 24.98830 | 149 ft | 11 kts | 27° |
| 2026-04-22 10:32 | 60.31290 | 24.98940 | 150 ft | 6 kts | 22° |
| 2026-04-22 10:32 | 60.31304 | 24.98903 | 150 ft | 0 kts | 234° |